createdAt,value
2023-05-22T00:00:18.070Z,15.1386
2023-05-22T00:01:19.896Z,15.1293
2023-05-22T00:02:22.168Z,15.1165
2023-05-22T00:03:23.345Z,15.1035
2023-05-22T00:04:25.318Z,15.0905
2023-05-22T00:05:27.283Z,15.0775
2023-05-22T00:07:29.177Z,15.0473
2023-05-22T00:10:32.212Z,15.0057
2023-05-22T00:11:34.266Z,14.9925
2023-05-22T00:16:40.560Z,14.9095
2023-05-22T00:17:40.879Z,14.8929
2023-05-22T00:18:42.112Z,14.8757
2023-05-22T00:19:43.983Z,14.8580
2023-05-22T00:20:45.204Z,14.8413
2023-05-22T00:21:47.427Z,14.8233
2023-05-22T00:22:48.670Z,14.7992
2023-05-22T00:23:50.306Z,14.7740
2023-05-22T00:24:51.495Z,14.7511
2023-05-22T00:25:52.433Z,14.7275
2023-05-22T00:26:54.325Z,14.7002
2023-05-22T00:28:07.312Z,14.6754
2023-05-22T00:29:27.852Z,14.7282
2023-05-22T00:30:28.489Z,14.6085
2023-05-22T00:31:31.320Z,14.5757
2023-05-22T00:34:35.448Z,14.4778
2023-05-22T00:35:35.649Z,14.4462
2023-05-22T00:37:38.550Z,14.3775
2023-05-22T00:38:40.368Z,14.3427
2023-05-22T00:39:42.605Z,14.3085
2023-05-22T00:40:43.806Z,14.2722
2023-05-22T00:48:30.617Z,14.0108
2023-05-22T00:49:31.210Z,13.9778
2023-05-22T00:50:31.607Z,13.9434
2023-05-22T00:51:35.738Z,13.9109
2023-05-22T00:58:41.915Z,13.7952
2023-05-22T00:59:44.082Z,13.6783
2023-05-22T01:00:44.670Z,13.6471
2023-05-22T01:01:46.831Z,13.6148
2023-05-22T01:09:25.029Z,13.4259
2023-05-22T01:10:25.664Z,13.4034
2023-05-22T01:11:27.488Z,13.3866
2023-05-22T01:12:28.849Z,13.3654
2023-05-22T01:13:30.093Z,13.3475
2023-05-22T01:16:02.539Z,13.3960
2023-05-22T01:17:03.789Z,13.2888
2023-05-22T01:19:06.685Z,13.2548
2023-05-22T01:20:08.670Z,13.2412
2023-05-22T01:21:09.040Z,13.2278
2023-05-22T01:22:10.274Z,13.2159
2023-05-22T01:23:10.560Z,13.2014
2023-05-22T01:24:12.790Z,13.1887
2023-05-22T01:25:14.160Z,13.1758
2023-05-22T01:26:15.816Z,13.1605
2023-05-22T01:27:16.967Z,13.1469
2023-05-22T01:28:19.039Z,13.1332
2023-05-22T01:29:20.299Z,13.1183
2023-05-22T01:30:21.698Z,13.1042
2023-05-22T01:31:21.965Z,13.0912
2023-05-22T01:32:23.003Z,13.0760
2023-05-22T01:33:24.809Z,13.0646
2023-05-22T01:34:26.863Z,13.0491
2023-05-22T01:35:28.939Z,13.0350
2023-05-22T01:36:30.809Z,13.0198
2023-05-22T01:37:32.089Z,13.0054
2023-05-22T01:38:33.782Z,12.9909
2023-05-22T01:39:35.038Z,12.9721
2023-05-22T01:40:36.693Z,12.9590
2023-05-22T01:41:38.497Z,12.9452
2023-05-22T01:42:40.335Z,12.9316
2023-05-22T01:43:41.105Z,12.9161
2023-05-22T01:44:40.480Z,12.9014
2023-05-22T01:45:41.047Z,12.8863
2023-05-22T01:46:41.221Z,12.8661
2023-05-22T01:47:42.244Z,12.8480
2023-05-22T01:48:44.872Z,12.8335
2023-05-22T01:49:46.357Z,12.8145
2023-05-22T01:50:48.371Z,12.7969
2023-05-22T01:51:49.576Z,12.7771
2023-05-22T01:52:51.444Z,12.7594
2023-05-22T01:53:53.192Z,12.7413
2023-05-22T01:54:55.326Z,12.7227
2023-05-22T01:57:58.667Z,12.6639
2023-05-22T02:06:08.152Z,12.4928
2023-05-22T02:08:10.036Z,12.4445
2023-05-22T02:09:11.558Z,12.4239
2023-05-22T02:11:12.103Z,12.3785
2023-05-22T02:12:12.769Z,12.3581
2023-05-22T02:13:13.007Z,12.3295
2023-05-22T02:14:14.798Z,12.3054
2023-05-22T02:16:16.681Z,12.2596
2023-05-22T02:18:18.787Z,12.2085
2023-05-22T02:19:20.144Z,12.1863
2023-05-22T02:20:22.953Z,12.1633
2023-05-22T02:21:23.575Z,12.1379
2023-05-22T02:22:24.651Z,12.1168
2023-05-22T02:23:26.053Z,12.0961
2023-05-22T02:24:26.802Z,12.0767
2023-05-22T02:25:28.896Z,12.0562
2023-05-22T02:26:31.106Z,12.0344
2023-05-22T02:27:32.156Z,12.0147
2023-05-22T02:28:34.266Z,11.9947
2023-05-22T02:29:35.295Z,11.9758
2023-05-22T02:30:36.907Z,11.9582
2023-05-22T02:31:38.724Z,11.9417
2023-05-22T02:32:39.467Z,11.9255
2023-05-22T02:33:40.906Z,11.9086
2023-05-22T02:34:42.693Z,11.8952
2023-05-22T02:35:44.186Z,11.8799
2023-05-22T02:36:45.836Z,11.8678
2023-05-22T02:37:47.244Z,11.8574
2023-05-22T02:38:49.003Z,11.8492
2023-05-22T02:39:49.720Z,11.8393
2023-05-22T02:42:53.770Z,11.8086
2023-05-22T02:43:53.734Z,11.8007
2023-05-22T02:44:55.369Z,11.7902
2023-05-22T02:45:57.454Z,11.7806
2023-05-22T02:46:59.075Z,11.7717
2023-05-22T02:48:00.207Z,11.7639
2023-05-22T02:49:01.646Z,11.7578
2023-05-22T02:50:02.117Z,11.7551
2023-05-22T02:51:02.190Z,11.7516
2023-05-22T02:52:04.600Z,11.7484
2023-05-22T02:53:05.564Z,11.7460
2023-05-22T02:54:07.224Z,11.7445
2023-05-22T02:55:08.903Z,11.7428
2023-05-22T02:56:09.077Z,11.7395
2023-05-22T02:57:10.221Z,11.7390
2023-05-22T02:58:25.577Z,11.7385
2023-05-22T02:59:43.065Z,11.8344
2023-05-22T03:00:44.077Z,11.7431
2023-05-22T03:01:46.204Z,11.7402
2023-05-22T03:03:48.670Z,11.7308
2023-05-22T03:04:50.226Z,11.7264
2023-05-22T03:05:50.922Z,11.7223
2023-05-22T03:06:52.220Z,11.7180
2023-05-22T03:07:53.626Z,11.7141
2023-05-22T03:10:54.031Z,11.6951
2023-05-22T03:11:55.233Z,11.6874
2023-05-22T03:12:55.347Z,11.6834
2023-05-22T03:13:57.501Z,11.6768
2023-05-22T03:14:58.948Z,11.6693
2023-05-22T03:16:00.410Z,11.6600
2023-05-22T03:17:02.259Z,11.6524
2023-05-22T03:18:03.621Z,11.6428
2023-05-22T03:19:05.403Z,11.6329
2023-05-22T03:21:06.353Z,11.6112
2023-05-22T03:22:08.281Z,11.5965
2023-05-22T03:23:09.505Z,11.5804
2023-05-22T03:24:10.128Z,11.5627
2023-05-22T03:25:10.808Z,11.5483
2023-05-22T03:26:12.757Z,11.5334
2023-05-22T03:27:13.862Z,11.5182
2023-05-22T03:28:16.047Z,11.5013
2023-05-22T03:29:16.364Z,11.4855
2023-05-22T03:30:16.579Z,11.4698
2023-05-22T03:31:18.753Z,11.4558
2023-05-22T03:32:20.356Z,11.4397
2023-05-22T03:33:20.989Z,11.4264
2023-05-22T03:35:21.871Z,11.3986
2023-05-22T03:36:23.031Z,11.3850
2023-05-22T03:37:23.823Z,11.3706
2023-05-22T03:38:25.756Z,11.3571
2023-05-22T03:39:26.893Z,11.3454
2023-05-22T03:40:28.307Z,11.3354
2023-05-22T03:41:28.717Z,11.3287
2023-05-22T03:42:30.385Z,11.3253
2023-05-22T03:43:31.028Z,11.3236
2023-05-22T03:44:32.129Z,11.3208
2023-05-22T03:45:37.627Z,11.3198
2023-05-22T03:51:40.921Z,11.3226
2023-05-22T03:52:41.310Z,11.3228
2023-05-22T03:53:42.715Z,11.3233
2023-05-22T03:54:44.358Z,11.3234
2023-05-22T03:55:46.309Z,11.3229
2023-05-22T03:56:48.892Z,11.3239
2023-05-22T04:04:55.899Z,11.3294
2023-05-22T04:05:58.219Z,11.3309
2023-05-22T04:06:59.460Z,11.3342
2023-05-22T04:08:01.186Z,11.3353
2023-05-22T04:09:02.158Z,11.3388
2023-05-22T04:10:02.223Z,11.3425
2023-05-22T04:11:02.581Z,11.3461
2023-05-22T04:12:03.822Z,11.3482
2023-05-22T04:13:04.290Z,11.3512
2023-05-22T04:14:07.615Z,11.3546
2023-05-22T04:15:09.033Z,11.3582
2023-05-22T04:16:09.685Z,11.3615
2023-05-22T04:17:12.054Z,11.3650
2023-05-22T04:18:12.428Z,11.3674
2023-05-22T04:19:12.820Z,11.3703
2023-05-22T04:20:15.437Z,11.3755
2023-05-22T04:21:16.386Z,11.3797
2023-05-22T04:22:17.956Z,11.3868
2023-05-22T04:23:20.302Z,11.3928
2023-05-22T04:24:21.151Z,11.4001
2023-05-22T04:25:23.851Z,11.4080
2023-05-22T04:27:25.066Z,11.4233
2023-05-22T04:29:29.197Z,11.4432
2023-05-22T04:30:31.158Z,11.4535
2023-05-22T04:31:33.165Z,11.4627
2023-05-22T04:32:35.210Z,11.4733
2023-05-22T04:40:42.088Z,11.5874
2023-05-22T04:41:44.412Z,11.6063
2023-05-22T04:42:46.245Z,11.6231
2023-05-22T04:43:48.236Z,11.6397
2023-05-22T04:44:49.344Z,11.6582
2023-05-22T04:45:51.745Z,11.6733
2023-05-22T04:51:58.945Z,11.7798
2023-05-22T04:53:00.737Z,11.7951
2023-05-22T04:54:02.713Z,11.8122
2023-05-22T04:55:04.585Z,11.8293
2023-05-22T04:56:03.977Z,11.8455
2023-05-22T04:57:06.177Z,11.8611
2023-05-22T04:59:07.520Z,11.8974
2023-05-22T05:00:08.935Z,11.9154
2023-05-22T05:01:10.329Z,11.9330
2023-05-22T05:02:12.371Z,11.9517
2023-05-22T05:03:13.538Z,11.9692
2023-05-22T05:04:13.863Z,11.9876
2023-05-22T05:05:15.219Z,12.0063
2023-05-22T05:06:16.677Z,12.0262
2023-05-22T05:07:19.051Z,12.0466
2023-05-22T05:08:21.056Z,12.0655
2023-05-22T05:16:29.915Z,12.2696
2023-05-22T05:17:30.165Z,12.2999
2023-05-22T05:18:32.343Z,12.3332
2023-05-22T05:20:33.672Z,12.4047
2023-05-22T05:21:35.460Z,12.4401
2023-05-22T05:22:36.022Z,12.4780
2023-05-22T05:23:38.136Z,12.5174
2023-05-22T05:24:40.110Z,12.5593
2023-05-22T05:25:41.978Z,12.5983
2023-05-22T05:26:43.148Z,12.6378
2023-05-22T05:27:44.457Z,12.6796
2023-05-22T05:28:46.166Z,12.7216
2023-05-22T05:29:46.653Z,12.7618
2023-05-22T05:30:48.014Z,12.8053
2023-05-22T05:31:50.051Z,12.8478
2023-05-22T05:33:51.606Z,12.9389
2023-05-22T05:35:54.401Z,13.0353
2023-05-22T05:36:54.931Z,13.0804
2023-05-22T05:38:57.153Z,13.1718
2023-05-22T05:39:57.428Z,13.2180
2023-05-22T05:40:59.293Z,13.2641
2023-05-22T05:42:00.918Z,13.3109
2023-05-22T05:43:01.897Z,13.3618
2023-05-22T05:45:02.211Z,13.4567
2023-05-22T05:46:02.343Z,13.5036
2023-05-22T05:48:05.137Z,13.6061
2023-05-22T05:49:06.641Z,13.6563
2023-05-22T05:50:07.146Z,13.7039
2023-05-22T05:51:09.355Z,13.7519
2023-05-22T05:52:10.850Z,13.8014
2023-05-22T05:55:14.678Z,13.9382
2023-05-22T05:56:15.084Z,13.9848
2023-05-22T05:57:16.233Z,14.0313
2023-05-22T05:58:17.435Z,14.0768
2023-05-22T05:59:18.947Z,14.1209
2023-05-22T06:00:20.277Z,14.1708
2023-05-22T06:01:22.393Z,14.2178
2023-05-22T06:02:23.982Z,14.2638
2023-05-22T06:03:27.590Z,14.3109
2023-05-22T06:04:25.374Z,14.3547
2023-05-22T06:06:27.931Z,14.4383
2023-05-22T06:07:29.117Z,14.4831
2023-05-22T06:08:30.329Z,14.5255
2023-05-22T06:09:31.771Z,14.5684
2023-05-22T06:10:32.997Z,14.6129
2023-05-22T06:11:34.812Z,14.6566
2023-05-22T06:12:36.249Z,14.7000
2023-05-22T06:13:37.978Z,14.7438
2023-05-22T06:14:39.523Z,14.7876
2023-05-22T06:15:41.448Z,14.8341
2023-05-22T06:16:44.323Z,14.8800
2023-05-22T06:17:44.360Z,14.9293
2023-05-22T06:18:44.445Z,14.9765
2023-05-22T06:19:45.940Z,15.0238
2023-05-22T06:20:47.249Z,15.0754
2023-05-22T06:21:51.410Z,15.1241
2023-05-22T06:22:50.644Z,15.1756
2023-05-22T06:23:52.623Z,15.2245
2023-05-22T06:24:53.824Z,15.2768
2023-05-22T06:25:55.180Z,15.3274
2023-05-22T06:26:57.276Z,15.3776
2023-05-22T06:27:59.501Z,15.4277
2023-05-22T06:29:03.000Z,15.4816
2023-05-22T06:31:03.624Z,15.5852
2023-05-22T06:32:04.530Z,15.6356
2023-05-22T06:33:06.195Z,15.6891
2023-05-22T06:34:07.720Z,15.7398
2023-05-22T06:35:08.230Z,15.7895
2023-05-22T06:36:08.284Z,15.8386
2023-05-22T06:37:10.322Z,15.8915
2023-05-22T06:38:11.575Z,15.9420
2023-05-22T06:42:45.201Z,16.1667
2023-05-22T06:43:46.881Z,16.2155
2023-05-22T06:45:48.913Z,16.3036
2023-05-22T06:48:49.700Z,16.4382
2023-05-22T06:49:50.748Z,16.4792
2023-05-22T06:50:52.728Z,16.5239
2023-05-22T06:51:54.385Z,16.5657
2023-05-22T06:52:55.024Z,16.6063
2023-05-22T06:54:56.404Z,16.6914
2023-05-22T06:55:57.810Z,16.7353
2023-05-22T06:57:59.490Z,16.8279
2023-05-22T06:59:00.825Z,16.8798
2023-05-22T07:00:02.525Z,16.9268
2023-05-22T07:02:05.782Z,17.0242
2023-05-22T07:03:07.293Z,17.0751
2023-05-22T07:04:09.251Z,17.1223
2023-05-22T07:05:09.290Z,17.1720
2023-05-22T07:06:11.577Z,17.2218
2023-05-22T07:07:14.181Z,17.2743
2023-05-22T07:10:17.118Z,17.4320
2023-05-22T07:11:19.119Z,17.4824
2023-05-22T07:12:20.397Z,17.5362
2023-05-22T07:13:21.916Z,17.5842
2023-05-22T07:14:23.757Z,17.6349
2023-05-22T07:15:24.975Z,17.6889
2023-05-22T07:16:26.267Z,17.7381
2023-05-22T07:17:26.969Z,17.7888
2023-05-22T07:20:31.778Z,17.9633
2023-05-22T07:21:33.704Z,18.0233
2023-05-22T07:22:35.194Z,18.0860
2023-05-22T07:23:36.426Z,18.1494
2023-05-22T07:25:38.091Z,18.2700
2023-05-22T07:26:39.031Z,18.3288
2023-05-22T07:27:40.286Z,18.3874
2023-05-22T07:28:41.979Z,18.4432
2023-05-22T07:29:43.152Z,18.5024
2023-05-22T07:30:44.500Z,18.5587
2023-05-22T07:31:45.323Z,18.6138
2023-05-22T07:32:45.390Z,18.6730
2023-05-22T07:33:46.444Z,18.7312
2023-05-22T07:34:48.036Z,18.7888
2023-05-22T07:35:49.453Z,18.8458
2023-05-22T07:36:50.462Z,18.9001
2023-05-22T07:37:52.075Z,18.9613
2023-05-22T07:38:53.884Z,19.0222
2023-05-22T07:39:54.258Z,19.0804
2023-05-22T07:40:56.378Z,19.1409
2023-05-22T07:41:58.812Z,19.2014
2023-05-22T07:42:58.170Z,19.2611
2023-05-22T07:43:58.286Z,19.3214
2023-05-22T07:45:00.130Z,19.3843
2023-05-22T07:46:02.138Z,19.4479
2023-05-22T07:47:02.850Z,19.5045
2023-05-22T07:48:02.933Z,19.5662
2023-05-22T07:49:03.656Z,19.6243
2023-05-22T07:50:04.408Z,19.6821
2023-05-22T07:51:05.853Z,19.7414
2023-05-22T07:52:07.674Z,19.8043
2023-05-22T07:53:08.279Z,19.8605
2023-05-22T07:54:09.598Z,19.9199
2023-05-22T07:55:09.664Z,19.9816
2023-05-22T07:56:11.567Z,20.0403
2023-05-22T07:57:13.622Z,20.1042
2023-05-22T07:58:16.535Z,20.1551
2023-05-22T07:59:17.517Z,20.2167
2023-05-22T08:00:19.687Z,20.2789
2023-05-22T08:01:20.302Z,20.3377
2023-05-22T08:02:22.342Z,20.3945
2023-05-22T08:03:24.378Z,20.4558
2023-05-22T08:04:23.954Z,20.5148
2023-05-22T08:05:24.902Z,20.5730
2023-05-22T08:06:25.350Z,20.6354
2023-05-22T08:07:27.333Z,20.6936
2023-05-22T08:08:31.699Z,20.7548
2023-05-22T08:09:31.226Z,20.8157
2023-05-22T08:10:46.504Z,20.8814
2023-05-22T08:12:04.789Z,21.0786
2023-05-22T08:13:04.868Z,21.0655
2023-05-22T08:14:07.050Z,21.1376
2023-05-22T08:15:08.822Z,21.2126
2023-05-22T08:16:11.000Z,21.2932
2023-05-22T08:17:11.963Z,21.3701
2023-05-22T08:18:14.152Z,21.4421
2023-05-22T08:19:15.710Z,21.5169
2023-05-22T08:20:17.380Z,21.6005
2023-05-22T08:21:19.181Z,21.6823
2023-05-22T08:22:21.134Z,21.7665
2023-05-22T08:23:22.561Z,21.8487
2023-05-22T08:24:23.778Z,21.9381
2023-05-22T08:25:25.422Z,22.0283
2023-05-22T08:26:26.662Z,22.1113
2023-05-22T08:27:28.398Z,22.1958
2023-05-22T08:28:30.006Z,22.2761
2023-05-22T08:29:30.623Z,22.3565
2023-05-22T08:30:30.828Z,22.4371
2023-05-22T08:31:32.334Z,22.5195
2023-05-22T08:32:32.590Z,22.6001
2023-05-22T08:33:34.056Z,22.6869
2023-05-22T08:34:35.457Z,22.7648
2023-05-22T08:35:37.153Z,22.8505
2023-05-22T08:36:38.713Z,22.9310
2023-05-22T08:37:40.011Z,23.0135
2023-05-22T08:38:41.769Z,23.0951
2023-05-22T08:39:43.305Z,23.1785
2023-05-22T08:40:46.466Z,23.2614
2023-05-22T08:41:46.539Z,23.3498
2023-05-22T08:42:48.340Z,23.4283
2023-05-22T08:43:50.186Z,23.5039
2023-05-22T08:44:51.687Z,23.5737
2023-05-22T08:45:53.300Z,23.6459
2023-05-22T08:46:54.957Z,23.7146
2023-05-22T08:47:56.979Z,23.7818
2023-05-22T08:48:59.017Z,23.8510
2023-05-22T08:49:59.781Z,23.9161
2023-05-22T08:51:00.077Z,23.9771
2023-05-22T08:52:01.542Z,24.0269
2023-05-22T08:53:02.647Z,24.0765
2023-05-22T08:54:02.868Z,24.1225
2023-05-22T08:55:04.336Z,24.1685
2023-05-22T08:56:06.144Z,24.2071
2023-05-22T08:57:07.793Z,24.2427
2023-05-22T08:58:08.432Z,24.2777
2023-05-22T08:59:09.770Z,24.3109
2023-05-22T09:00:10.238Z,24.3416
2023-05-22T09:01:12.085Z,24.3697
2023-05-22T09:02:13.924Z,24.3977
2023-05-22T09:03:15.189Z,24.4259
2023-05-22T09:04:17.316Z,24.4609
2023-05-22T09:05:19.106Z,24.4978
2023-05-22T09:06:20.981Z,24.5346
2023-05-22T09:07:22.797Z,24.5762
2023-05-22T09:08:24.843Z,24.6186
2023-05-22T09:09:26.386Z,24.6653
2023-05-22T09:10:26.861Z,24.7151
2023-05-22T09:11:28.670Z,24.7704
2023-05-22T09:12:29.933Z,24.8313
2023-05-22T09:13:31.870Z,24.9007
2023-05-22T09:14:33.181Z,24.9769
2023-05-22T09:15:34.852Z,25.0502
2023-05-22T09:16:35.626Z,25.1316
2023-05-22T09:17:37.874Z,25.2137
2023-05-22T09:18:39.243Z,25.2981
2023-05-22T09:19:40.477Z,25.3834
2023-05-22T09:20:41.419Z,25.4718
2023-05-22T09:21:41.895Z,25.5628
2023-05-22T09:22:43.505Z,25.6483
2023-05-22T09:23:45.310Z,25.7414
2023-05-22T09:24:47.022Z,25.8401
2023-05-22T09:25:48.967Z,25.9376
2023-05-22T09:26:51.024Z,26.0352
2023-05-22T09:27:52.650Z,26.1361
2023-05-22T09:28:53.978Z,26.2323
2023-05-22T09:29:55.809Z,26.3327
2023-05-22T09:30:56.284Z,26.4313
2023-05-22T09:31:56.535Z,26.5308
2023-05-22T09:32:58.682Z,26.6301
2023-05-22T09:33:59.102Z,26.7254
2023-05-22T09:35:00.850Z,26.8192
2023-05-22T09:36:01.878Z,26.9049
2023-05-22T09:37:03.766Z,26.9906
2023-05-22T09:38:04.792Z,27.0730
2023-05-22T09:39:06.995Z,27.1546
2023-05-22T09:40:07.652Z,27.2286
2023-05-22T09:41:09.684Z,27.2995
2023-05-22T09:42:11.213Z,27.3686
2023-05-22T09:43:11.412Z,27.4288
2023-05-22T09:44:12.538Z,27.4954
2023-05-22T09:45:13.904Z,27.5654
2023-05-22T09:46:14.922Z,27.6372
2023-05-22T09:47:16.843Z,27.7139
2023-05-22T09:48:17.161Z,27.7871
2023-05-22T09:49:19.311Z,27.8558
2023-05-22T09:50:21.511Z,27.9289
2023-05-22T09:51:23.261Z,27.9997
2023-05-22T09:52:23.498Z,28.0660
2023-05-22T09:53:25.231Z,28.1353
2023-05-22T09:54:27.065Z,28.2055
2023-05-22T09:55:27.265Z,28.2700
2023-05-22T09:56:38.486Z,28.3376
2023-05-22T09:57:29.586Z,28.4083
2023-05-22T09:58:31.273Z,28.4761
2023-05-22T09:59:32.781Z,28.5393
2023-05-22T10:00:34.501Z,28.6058
2023-05-22T10:01:34.886Z,28.6725
2023-05-22T10:02:35.706Z,28.7375
2023-05-22T10:03:37.446Z,28.8138
2023-05-22T10:04:39.495Z,28.8865
2023-05-22T10:05:39.859Z,28.9554
2023-05-22T10:06:41.620Z,29.0227
2023-05-22T10:07:43.666Z,29.0797
2023-05-22T10:08:44.083Z,29.1298
2023-05-22T10:09:46.135Z,29.1687
2023-05-22T10:10:47.374Z,29.2044
2023-05-22T10:11:49.262Z,29.2442
2023-05-22T10:12:51.127Z,29.2831
2023-05-22T10:13:53.328Z,29.3241
2023-05-22T10:14:54.312Z,29.3565
2023-05-22T10:15:56.193Z,29.3859
2023-05-22T10:16:57.858Z,29.4102
2023-05-22T10:17:59.434Z,29.4311
2023-05-22T10:19:01.092Z,29.4513
2023-05-22T10:20:00.950Z,29.4707
2023-05-22T10:21:02.179Z,29.4882
2023-05-22T10:22:02.434Z,29.5036
2023-05-22T10:23:04.119Z,29.5210
2023-05-22T10:24:04.925Z,29.5368
2023-05-22T10:25:08.516Z,29.5485
2023-05-22T10:26:08.020Z,29.5564
2023-05-22T10:27:09.374Z,29.5642
2023-05-22T10:30:13.506Z,29.5618
2023-05-22T10:31:14.921Z,29.5472
2023-05-22T10:32:16.462Z,29.5272
2023-05-22T10:33:17.006Z,29.5091
2023-05-22T10:34:17.535Z,29.4929
2023-05-22T10:35:19.248Z,29.4765
2023-05-22T10:36:21.279Z,29.4588
2023-05-22T10:37:22.564Z,29.4395
2023-05-22T10:38:24.173Z,29.4187
2023-05-22T10:39:24.650Z,29.4005
2023-05-22T10:40:27.034Z,29.3843
2023-05-22T10:41:28.582Z,29.3742
2023-05-22T10:42:30.328Z,29.3693
2023-05-22T10:43:30.408Z,29.3713
2023-05-22T10:44:30.889Z,29.3823
2023-05-22T10:45:32.146Z,29.3988
2023-05-22T10:46:32.549Z,29.4207
2023-05-22T10:47:32.929Z,29.4392
2023-05-22T10:48:33.993Z,29.4512
2023-05-22T10:49:35.386Z,29.4562
2023-05-22T10:50:36.733Z,29.4595
2023-05-22T10:51:38.512Z,29.4600
2023-05-22T10:52:39.937Z,29.4609
2023-05-22T10:53:41.653Z,29.4610
2023-05-22T10:54:43.107Z,29.4628
2023-05-22T10:55:44.769Z,29.4693
2023-05-22T10:56:46.471Z,29.4837
2023-05-22T10:57:48.115Z,29.5039
2023-05-22T10:58:49.931Z,29.5285
2023-05-22T10:59:51.468Z,29.5589
2023-05-22T11:00:53.130Z,29.6050
2023-05-22T11:01:53.997Z,29.6637
2023-05-22T11:03:00.812Z,29.7401
2023-05-22T11:04:57.385Z,29.9336
2023-05-22T11:05:59.276Z,30.0506
2023-05-22T11:07:00.638Z,30.1768
2023-05-22T11:08:00.904Z,30.3071
2023-05-22T11:09:02.806Z,30.4555
2023-05-22T11:10:03.781Z,30.5968
2023-05-22T11:11:04.025Z,30.7395
2023-05-22T11:12:04.550Z,30.8845
2023-05-22T11:13:05.512Z,31.0362
2023-05-22T11:14:07.458Z,31.1962
2023-05-22T11:15:08.307Z,31.3492
2023-05-22T11:16:09.678Z,31.5175
2023-05-22T11:17:11.527Z,31.6874
2023-05-22T11:18:11.993Z,31.8611
2023-05-22T11:20:13.716Z,32.1899
2023-05-22T11:22:13.851Z,32.5045
2023-05-22T11:23:14.714Z,32.6657
2023-05-22T11:24:16.052Z,32.8225
2023-05-22T11:25:16.194Z,32.9801
2023-05-22T11:26:16.294Z,33.1324
2023-05-22T11:27:16.710Z,33.2850
2023-05-22T11:28:18.282Z,33.4395
2023-05-22T11:29:19.916Z,33.5949
2023-05-22T11:30:21.362Z,33.7428
2023-05-22T11:31:23.316Z,33.8873
2023-05-22T11:32:25.103Z,34.0305
2023-05-22T11:33:26.873Z,34.1726
2023-05-22T11:34:27.780Z,34.3114
2023-05-22T11:35:29.198Z,34.4418
2023-05-22T11:36:30.638Z,34.5610
2023-05-22T11:37:32.288Z,34.6676
2023-05-22T11:38:33.943Z,34.7806
2023-05-22T11:39:34.423Z,34.8943
2023-05-22T11:40:35.642Z,35.0145
2023-05-22T11:41:35.828Z,35.1280
2023-05-22T11:42:36.187Z,35.2461
2023-05-22T11:43:37.259Z,35.3692
2023-05-22T11:44:39.340Z,35.4949
2023-05-22T11:45:40.094Z,35.6292
2023-05-22T11:46:41.735Z,35.7539
2023-05-22T11:47:43.506Z,35.8904
2023-05-22T11:48:45.578Z,36.0063
2023-05-22T11:49:45.922Z,36.1124
2023-05-22T11:50:47.647Z,36.2231
2023-05-22T11:51:48.652Z,36.3231
2023-05-22T11:52:49.604Z,36.4275
2023-05-22T11:53:50.374Z,36.5363
2023-05-22T11:54:51.678Z,36.6398
2023-05-22T11:55:52.784Z,36.7344
2023-05-22T11:56:54.493Z,36.8274
2023-05-22T11:57:56.013Z,36.9156
2023-05-22T11:58:56.202Z,36.9991
2023-05-22T11:59:56.948Z,37.0904
2023-05-22T12:00:57.060Z,37.1801
2023-05-22T12:01:58.063Z,37.2716
2023-05-22T12:02:59.404Z,37.3652
2023-05-22T12:04:00.035Z,37.4436
2023-05-22T12:05:01.338Z,37.5100
2023-05-22T12:06:03.146Z,37.5683
2023-05-22T12:07:04.211Z,37.6273
2023-05-22T12:08:04.823Z,37.6878
2023-05-22T12:09:06.810Z,37.7403
2023-05-22T12:10:08.954Z,37.8014
2023-05-22T12:11:10.356Z,37.8709
2023-05-22T12:12:10.992Z,37.9383
2023-05-22T12:13:11.002Z,38.0076
2023-05-22T12:14:11.720Z,38.0761
2023-05-22T12:15:13.692Z,38.1440
2023-05-22T12:16:14.289Z,38.2070
2023-05-22T12:17:14.831Z,38.2725
2023-05-22T12:18:14.835Z,38.3400
2023-05-22T12:19:16.068Z,38.4091
2023-05-22T12:20:17.949Z,38.4799
2023-05-22T12:21:18.616Z,38.5460
2023-05-22T12:22:19.732Z,38.6016
2023-05-22T12:23:20.475Z,38.6658
2023-05-22T12:24:21.274Z,38.7200
2023-05-22T12:25:21.337Z,38.7772
2023-05-22T12:26:23.501Z,38.8310
2023-05-22T12:27:24.676Z,38.8955
2023-05-22T12:28:26.681Z,38.9632
2023-05-22T12:29:28.585Z,39.0252
2023-05-22T12:30:30.472Z,39.0864
2023-05-22T12:31:32.604Z,39.1518
2023-05-22T12:32:32.701Z,39.2119
2023-05-22T12:33:34.857Z,39.2560
2023-05-22T12:34:36.469Z,39.2772
2023-05-22T12:35:38.073Z,39.2718
2023-05-22T12:36:38.340Z,39.2700
2023-05-22T12:37:40.413Z,39.2407
2023-05-22T12:38:40.946Z,39.1828
2023-05-22T12:39:41.912Z,39.0900
2023-05-22T12:40:43.694Z,39.0127
2023-05-22T12:41:44.282Z,38.9665
2023-05-22T12:42:45.356Z,38.9351
2023-05-22T12:43:47.397Z,38.9162
2023-05-22T12:44:49.009Z,38.9080
2023-05-22T12:45:50.657Z,38.9151
2023-05-22T12:46:52.186Z,38.9381
2023-05-22T12:47:53.297Z,38.9493
2023-05-22T12:48:55.211Z,38.8856
2023-05-22T12:49:56.615Z,38.7590
2023-05-22T12:50:57.016Z,38.5878
2023-05-22T12:51:57.716Z,38.3861
2023-05-22T12:52:57.812Z,38.1499
2023-05-22T12:53:58.945Z,37.8870
2023-05-22T12:55:00.377Z,37.6556
2023-05-22T12:56:00.670Z,37.5036
2023-05-22T12:57:02.716Z,37.3915
2023-05-22T12:58:02.736Z,37.3180
2023-05-22T12:59:04.835Z,37.2743
2023-05-22T13:00:05.082Z,37.2445
2023-05-22T13:01:06.554Z,37.2349
2023-05-22T13:02:07.948Z,37.2344
2023-05-22T13:03:09.573Z,37.2280
2023-05-22T13:04:11.042Z,37.2312
2023-05-22T13:05:11.517Z,37.2459
2023-05-22T13:06:13.151Z,37.2679
2023-05-22T13:07:14.181Z,37.2978
2023-05-22T13:08:14.370Z,37.3291
2023-05-22T13:09:14.771Z,37.3571
2023-05-22T13:10:16.096Z,37.3839
2023-05-22T13:11:17.347Z,37.4099
2023-05-22T13:12:17.832Z,37.4398
2023-05-22T13:13:18.770Z,37.4778
2023-05-22T13:14:20.545Z,37.5122
2023-05-22T13:15:22.109Z,37.5466
2023-05-22T13:16:22.918Z,37.5784
2023-05-22T13:17:24.520Z,37.6113
2023-05-22T13:18:25.088Z,37.6457
2023-05-22T13:19:27.347Z,37.6873
2023-05-22T13:20:27.912Z,37.7255
2023-05-22T13:21:29.079Z,37.7662
2023-05-22T13:22:29.965Z,37.8086
2023-05-22T13:24:30.283Z,37.8800
2023-05-22T13:25:30.937Z,37.9121
2023-05-22T13:26:31.173Z,37.9425
2023-05-22T13:27:33.942Z,37.9706
2023-05-22T13:28:33.939Z,37.9971
2023-05-22T13:29:35.336Z,38.0197
2023-05-22T13:30:36.836Z,38.0381
2023-05-22T13:33:41.087Z,38.1068
2023-05-22T13:35:42.140Z,38.1501
2023-05-22T13:36:43.379Z,38.1760
2023-05-22T13:37:45.492Z,38.2069
2023-05-22T13:39:45.659Z,38.2759
2023-05-22T13:40:48.194Z,38.2578
2023-05-22T13:41:45.955Z,38.2429
2023-05-22T13:42:46.128Z,38.1958
2023-05-22T13:43:47.550Z,38.0749
2023-05-22T13:45:48.958Z,37.7064
2023-05-22T13:46:50.435Z,37.4608
2023-05-22T13:47:51.839Z,37.1996
2023-05-22T13:48:53.579Z,36.9323
2023-05-22T13:49:54.149Z,36.6600
2023-05-22T13:50:55.565Z,36.3584
2023-05-22T13:51:57.727Z,36.0757
2023-05-22T13:52:57.910Z,35.8662
2023-05-22T13:53:58.171Z,35.7376
2023-05-22T13:54:59.697Z,35.6758
2023-05-22T13:56:01.207Z,35.6625
2023-05-22T13:57:02.868Z,35.6772
2023-05-22T13:58:04.263Z,35.7088
2023-05-22T13:59:09.005Z,35.7565
2023-05-22T14:00:06.482Z,35.8159
2023-05-22T14:01:06.653Z,35.8847
2023-05-22T14:02:07.917Z,35.9667
2023-05-22T14:03:09.088Z,36.0568
2023-05-22T14:04:09.073Z,36.1128
2023-05-22T14:05:09.949Z,36.1177
2023-05-22T14:06:12.613Z,36.1436
2023-05-22T14:07:13.636Z,36.2086
2023-05-22T14:08:15.515Z,36.2814
2023-05-22T14:09:17.008Z,36.3612
2023-05-22T14:10:18.430Z,36.4169
2023-05-22T14:11:20.216Z,36.4022
2023-05-22T14:12:20.928Z,36.3402
2023-05-22T14:13:22.378Z,36.2273
2023-05-22T14:14:24.564Z,36.0727
2023-05-22T14:15:26.503Z,35.8944
2023-05-22T14:16:27.877Z,35.6928
2023-05-22T14:17:29.179Z,35.5155
2023-05-22T14:18:30.569Z,35.3715
2023-05-22T14:19:32.987Z,35.2479
2023-05-22T14:20:33.316Z,35.1857
2023-05-22T14:21:35.348Z,35.1544
2023-05-22T14:22:47.959Z,35.1471
2023-05-22T14:25:06.713Z,35.1601
2023-05-22T14:26:08.569Z,35.1936
2023-05-22T14:27:10.849Z,35.2116